createdAt,value
2023-03-27T00:00:23.082Z,99.90
2023-03-27T00:02:50.271Z,99.90
2023-03-27T00:05:27.099Z,99.90
2023-03-27T00:07:57.792Z,99.90
2023-03-27T00:10:31.150Z,99.90
2023-03-27T00:12:58.783Z,99.90
2023-03-27T00:15:25.924Z,99.90
2023-03-27T00:18:01.137Z,99.90
2023-03-27T00:20:28.033Z,99.90
2023-03-27T00:23:03.118Z,99.90
2023-03-27T00:25:30.948Z,99.90
2023-03-27T00:28:05.182Z,99.90
2023-03-27T00:30:32.087Z,99.90
2023-03-27T00:33:05.279Z,99.90
2023-03-27T00:35:32.283Z,99.90
2023-03-27T00:38:05.222Z,99.90
2023-03-27T00:40:32.520Z,99.90
2023-03-27T00:43:06.175Z,99.90
2023-03-27T00:45:34.112Z,99.90
2023-03-27T00:48:04.509Z,99.90
2023-03-27T00:50:43.155Z,99.90
2023-03-27T00:53:23.230Z,99.90
2023-03-27T00:55:53.044Z,99.90
2023-03-27T00:58:38.154Z,99.90
2023-03-27T01:01:12.393Z,99.90
2023-03-27T01:03:47.369Z,99.90
2023-03-27T01:06:17.014Z,99.90
2023-03-27T01:08:52.156Z,99.90
2023-03-27T01:11:49.057Z,99.90
2023-03-27T01:14:51.280Z,99.90
2023-03-27T01:17:21.043Z,99.90
2023-03-27T01:20:20.335Z,99.90
2023-03-27T01:23:15.022Z,99.90
2023-03-27T01:25:59.245Z,99.90
2023-03-27T01:28:47.265Z,99.90
2023-03-27T01:31:50.313Z,99.90
2023-03-27T01:35:01.489Z,99.90
2023-03-27T01:37:55.457Z,99.90
2023-03-27T01:40:58.430Z,99.90
2023-03-27T01:43:35.838Z,99.90
2023-03-27T01:46:29.281Z,99.90
2023-03-27T01:49:16.646Z,99.90
2023-03-27T01:51:55.262Z,99.90
2023-03-27T01:54:47.915Z,99.90
2023-03-27T01:57:30.270Z,99.90
2023-03-27T02:00:18.313Z,99.90
2023-03-27T02:03:08.236Z,99.90
2023-03-27T02:05:58.504Z,99.90
2023-03-27T02:08:36.287Z,99.90
2023-03-27T02:11:11.328Z,99.90
2023-03-27T02:13:44.188Z,99.90
2023-03-27T02:16:23.305Z,99.90
2023-03-27T02:18:58.390Z,99.90
2023-03-27T02:21:32.351Z,99.90
2023-03-27T02:24:08.416Z,99.90
2023-03-27T02:26:35.174Z,99.90
2023-03-27T02:29:17.298Z,99.90
2023-03-27T02:32:00.372Z,99.90
2023-03-27T02:35:08.298Z,99.90
2023-03-27T02:37:58.466Z,99.90
2023-03-27T02:40:39.866Z,99.90
2023-03-27T02:43:32.356Z,99.90
2023-03-27T02:46:13.355Z,99.90
2023-03-27T02:48:52.688Z,99.90
2023-03-27T02:51:38.869Z,99.90
2023-03-27T02:54:19.357Z,99.90
2023-03-27T02:56:51.896Z,99.90
2023-03-27T02:59:37.355Z,99.90
2023-03-27T03:02:09.578Z,99.90
2023-03-27T03:04:48.371Z,99.90
2023-03-27T03:07:16.129Z,99.90
2023-03-27T03:09:51.391Z,99.90
2023-03-27T03:12:18.489Z,99.90
2023-03-27T03:14:52.358Z,99.90
2023-03-27T03:17:19.209Z,99.90
2023-03-27T03:19:52.434Z,99.90
2023-03-27T03:22:25.426Z,99.90
2023-03-27T03:24:52.239Z,99.90
2023-03-27T03:27:29.398Z,99.90
2023-03-27T03:30:03.424Z,99.90
2023-03-27T03:32:30.780Z,99.90
2023-03-27T03:35:04.420Z,99.90
2023-03-27T03:37:38.807Z,99.90
2023-03-27T03:40:18.403Z,99.90
2023-03-27T03:42:56.399Z,99.90
2023-03-27T03:45:29.490Z,99.90
2023-03-27T03:47:56.417Z,99.90
2023-03-27T03:50:29.446Z,99.90
2023-03-27T03:52:56.288Z,99.90
2023-03-27T03:55:32.471Z,99.90
2023-03-27T03:57:59.326Z,99.90
2023-03-27T04:00:33.450Z,99.90
2023-03-27T04:03:00.722Z,99.90
2023-03-27T04:05:34.459Z,99.90
2023-03-27T04:08:02.735Z,99.90
2023-03-27T04:10:36.474Z,99.90
2023-03-27T04:13:10.425Z,99.90
2023-03-27T04:15:43.524Z,99.90
2023-03-27T04:18:16.562Z,99.90
2023-03-27T04:20:43.634Z,99.90
2023-03-27T04:23:10.404Z,99.90
2023-03-27T04:25:44.488Z,99.90
2023-03-27T04:28:16.442Z,99.90
2023-03-27T04:30:51.506Z,99.90
2023-03-27T04:33:18.756Z,99.90
2023-03-27T04:36:05.297Z,99.90
2023-03-27T04:38:38.692Z,99.90
2023-03-27T04:41:12.512Z,99.90
2023-03-27T04:43:41.878Z,99.90
2023-03-27T04:46:15.514Z,99.90
2023-03-27T04:48:42.572Z,99.90
2023-03-27T04:51:15.622Z,99.90
2023-03-27T04:53:43.020Z,99.90
2023-03-27T04:56:17.573Z,99.90
2023-03-27T04:58:53.503Z,99.90
2023-03-27T05:01:26.768Z,99.90
2023-03-27T05:03:53.757Z,99.90
2023-03-27T05:06:30.589Z,99.90
2023-03-27T05:08:57.417Z,99.90
2023-03-27T05:11:30.515Z,99.90
2023-03-27T05:13:57.456Z,99.90
2023-03-27T05:16:32.611Z,99.90
2023-03-27T05:18:59.427Z,99.90
2023-03-27T05:21:32.546Z,99.90
2023-03-27T05:27:54.628Z,99.90
2023-03-27T05:30:23.815Z,99.90
2023-03-27T05:32:58.633Z,99.90
2023-03-27T05:35:26.243Z,99.90
2023-03-27T05:37:54.656Z,99.90
2023-03-27T05:40:34.616Z,99.90
2023-03-27T05:43:01.389Z,99.90
2023-03-27T05:45:35.621Z,99.90
2023-03-27T05:48:10.703Z,99.90
2023-03-27T05:50:38.013Z,99.90
2023-03-27T05:53:09.962Z,99.90
2023-03-27T05:55:46.666Z,99.90
2023-03-27T05:58:20.665Z,99.90
2023-03-27T06:00:47.945Z,99.90
2023-03-27T06:03:14.828Z,99.90
2023-03-27T06:05:48.699Z,99.90
2023-03-27T06:08:15.731Z,99.90
2023-03-27T06:10:44.170Z,99.90
2023-03-27T06:13:19.644Z,99.90
2023-03-27T06:15:53.813Z,99.90
2023-03-27T06:18:27.683Z,99.90
2023-03-27T06:20:54.767Z,99.90
2023-03-27T06:23:28.672Z,99.90
2023-03-27T06:26:08.679Z,99.90
2023-03-27T06:28:35.707Z,99.90
2023-03-27T06:31:09.802Z,99.90
2023-03-27T06:33:44.717Z,99.90
2023-03-27T06:36:12.614Z,99.90
2023-03-27T06:38:45.714Z,99.90
2023-03-27T06:41:19.719Z,99.90
2023-03-27T06:43:46.466Z,99.90
2023-03-27T06:46:19.745Z,99.90
2023-03-27T06:48:47.761Z,99.90
2023-03-27T06:51:14.627Z,99.90
2023-03-27T06:53:48.722Z,99.90
2023-03-27T06:56:22.743Z,99.90
2023-03-27T06:58:49.549Z,99.90
2023-03-27T07:01:16.616Z,99.90
2023-03-27T07:03:50.809Z,99.90
2023-03-27T07:06:19.329Z,99.90
2023-03-27T07:08:52.720Z,99.90
2023-03-27T07:11:19.521Z,99.90
2023-03-27T07:13:46.446Z,99.90
2023-03-27T07:16:19.817Z,99.90
2023-03-27T07:18:54.660Z,99.90
2023-03-27T07:21:27.733Z,99.90
2023-03-27T07:24:00.776Z,99.90
2023-03-27T07:26:33.770Z,99.90
2023-03-27T07:29:00.973Z,99.90
2023-03-27T07:31:41.878Z,99.90
2023-03-27T07:34:22.810Z,99.90
2023-03-27T07:36:56.774Z,99.90
2023-03-27T07:39:24.156Z,99.90
2023-03-27T07:41:51.884Z,99.90
2023-03-27T07:44:32.820Z,99.90
2023-03-27T07:47:08.823Z,99.90
2023-03-27T07:49:41.874Z,99.90
2023-03-27T07:52:09.158Z,99.90
2023-03-27T07:54:42.788Z,99.90
2023-03-27T07:57:10.351Z,99.90
2023-03-27T07:59:44.864Z,99.90
2023-03-27T08:02:11.780Z,99.90
2023-03-27T08:04:44.985Z,99.90
2023-03-27T08:07:18.837Z,99.90
2023-03-27T08:09:51.896Z,99.90
2023-03-27T08:12:25.847Z,99.90
2023-03-27T08:14:54.432Z,99.90
2023-03-27T08:17:27.980Z,99.90
2023-03-27T08:19:55.487Z,99.90
2023-03-27T08:22:29.973Z,99.90
2023-03-27T08:24:57.378Z,99.90
2023-03-27T08:27:30.885Z,99.90
2023-03-27T08:29:58.352Z,99.90
2023-03-27T08:32:26.391Z,99.90
2023-03-27T08:34:59.932Z,99.90
2023-03-27T08:37:33.890Z,99.90
2023-03-27T08:40:01.990Z,99.90
2023-03-27T08:42:46.903Z,99.90
2023-03-27T08:45:23.541Z,99.90
2023-03-27T08:48:11.017Z,99.90
2023-03-27T08:50:47.281Z,99.90
2023-03-27T08:53:49.882Z,99.90
2023-03-27T08:56:18.346Z,99.90
2023-03-27T08:58:52.936Z,99.90
2023-03-27T09:01:36.564Z,99.90
2023-03-27T09:04:27.954Z,99.90
2023-03-27T09:07:12.938Z,99.90
2023-03-27T09:09:54.929Z,99.90
2023-03-27T09:12:50.645Z,99.90
2023-03-27T09:15:32.961Z,99.90
2023-03-27T09:18:10.094Z,99.90
2023-03-27T09:20:45.754Z,99.90
2023-03-27T09:23:29.991Z,99.90
2023-03-27T09:26:01.195Z,99.90
2023-03-27T09:28:45.703Z,99.90
2023-03-27T09:31:36.055Z,99.90
2023-03-27T09:34:19.982Z,99.90
2023-03-27T09:36:47.032Z,99.90
2023-03-27T09:39:27.991Z,99.90
2023-03-27T09:42:10.958Z,99.90
2023-03-27T09:44:48.005Z,99.90
2023-03-27T09:47:26.103Z,99.90
2023-03-27T09:50:12.015Z,99.90
2023-03-27T09:52:47.997Z,99.90
2023-03-27T09:55:23.974Z,99.90
2023-03-27T09:58:07.049Z,99.90
2023-03-27T10:00:35.081Z,99.90
2023-03-27T10:03:30.097Z,99.90
2023-03-27T10:06:15.009Z,99.90
2023-03-27T10:08:50.369Z,99.90
2023-03-27T10:11:27.004Z,99.90
2023-03-27T10:13:55.129Z,99.90
2023-03-27T10:16:30.254Z,99.90
2023-03-27T10:18:59.471Z,99.90
2023-03-27T10:21:35.080Z,99.90
2023-03-27T10:24:04.764Z,99.90
2023-03-27T10:26:40.062Z,99.90
2023-03-27T10:29:26.037Z,99.90
2023-03-27T10:32:02.118Z,99.90
2023-03-27T10:34:38.011Z,99.90
2023-03-27T10:37:28.106Z,99.90
2023-03-27T10:39:57.417Z,99.90
2023-03-27T10:42:34.104Z,99.90
2023-03-27T10:45:01.204Z,99.90
2023-03-27T10:47:38.129Z,99.90
2023-03-27T10:50:30.203Z,99.90
2023-03-27T10:53:16.221Z,99.90
2023-03-27T10:55:51.076Z,99.90
2023-03-27T10:58:30.765Z,99.90
2023-03-27T11:01:13.139Z,99.90
2023-03-27T11:03:51.145Z,99.90
2023-03-27T11:06:28.137Z,99.90
2023-03-27T11:09:10.062Z,99.90
2023-03-27T11:11:47.114Z,99.90
2023-03-27T11:14:26.317Z,99.90
2023-03-27T11:17:05.341Z,99.90
2023-03-27T11:19:46.674Z,99.90
2023-03-27T11:22:27.152Z,99.90
2023-03-27T11:25:03.169Z,99.90
2023-03-27T11:27:43.877Z,99.90
2023-03-27T11:30:39.172Z,99.90
2023-03-27T11:33:18.132Z,99.90
2023-03-27T11:35:57.203Z,99.90
2023-03-27T11:38:31.957Z,99.90
2023-03-27T11:41:05.173Z,99.90
2023-03-27T11:43:47.171Z,99.90
2023-03-27T11:46:32.227Z,99.90
2023-03-27T11:49:21.143Z,99.90
2023-03-27T11:52:04.199Z,99.90
2023-03-27T11:54:45.671Z,99.90
2023-03-27T11:57:30.173Z,99.90
2023-03-27T12:00:23.197Z,99.90
2023-03-27T12:03:28.407Z,99.90
2023-03-27T12:06:02.242Z,99.90
2023-03-27T12:08:56.189Z,99.90
2023-03-27T12:11:25.869Z,99.90
2023-03-27T12:14:03.422Z,99.90
2023-03-27T12:16:35.200Z,99.90
2023-03-27T12:19:39.192Z,99.90
2023-03-27T12:22:30.106Z,99.90
2023-03-27T12:25:58.203Z,99.90
2023-03-27T12:29:23.708Z,99.90
2023-03-27T12:32:34.245Z,99.90
2023-03-27T12:35:09.202Z,99.90
2023-03-27T12:37:55.270Z,99.90
2023-03-27T12:40:48.245Z,99.90
2023-03-27T12:43:27.247Z,99.90
2023-03-27T12:46:15.308Z,99.90
2023-03-27T12:48:58.302Z,99.90
2023-03-27T12:51:54.344Z,99.90
2023-03-27T12:54:38.334Z,99.90
2023-03-27T12:57:28.452Z,99.90
2023-03-27T13:00:05.405Z,99.90
2023-03-27T13:03:10.106Z,99.90
2023-03-27T13:06:10.349Z,99.90
2023-03-27T13:09:21.303Z,99.90
2023-03-27T13:12:06.515Z,99.90
2023-03-27T13:15:13.343Z,99.90
2023-03-27T13:17:46.394Z,99.90
2023-03-27T13:20:35.364Z,99.90
2023-03-27T13:23:31.414Z,99.90
2023-03-27T13:26:10.833Z,99.90
2023-03-27T13:28:46.362Z,99.90
2023-03-27T13:31:40.442Z,99.90
2023-03-27T13:34:28.555Z,99.90
2023-03-27T13:37:22.408Z,99.90
2023-03-27T13:40:20.595Z,99.90
2023-03-27T13:42:59.376Z,99.90
2023-03-27T13:45:39.837Z,99.90
2023-03-27T13:48:19.378Z,99.90
2023-03-27T13:51:09.416Z,99.90
2023-03-27T13:53:42.381Z,99.90
2023-03-27T13:56:34.377Z,99.90
2023-03-27T13:59:13.198Z,99.90
2023-03-27T14:02:11.528Z,99.90
2023-03-27T14:05:00.399Z,99.90
2023-03-27T14:07:33.372Z,99.90
2023-03-27T14:10:24.576Z,99.90
2023-03-27T14:13:19.430Z,99.90
2023-03-27T14:16:14.451Z,99.90
2023-03-27T14:18:56.341Z,99.90
2023-03-27T14:21:38.911Z,99.90
2023-03-27T14:24:28.075Z,99.90
2023-03-27T14:27:02.511Z,99.90
2023-03-27T14:29:29.664Z,99.90
2023-03-27T14:32:10.427Z,99.90
2023-03-27T14:37:35.402Z,98.30
2023-03-27T14:40:24.470Z,98.40
2023-03-27T14:42:56.530Z,98.60
2023-03-27T14:45:34.529Z,98.60
2023-03-27T14:48:25.925Z,97.10
2023-03-27T14:51:02.596Z,97.60
2023-03-27T14:53:43.475Z,98.30
2023-03-27T14:56:21.088Z,98.70
2023-03-27T14:58:57.494Z,98.70
2023-03-27T15:01:24.766Z,98.60
2023-03-27T15:03:59.560Z,99.60
2023-03-27T15:06:26.629Z,99.80
2023-03-27T15:09:02.512Z,99.80
2023-03-27T15:11:38.944Z,99.90
2023-03-27T15:14:20.531Z,99.60
2023-03-27T15:17:10.571Z,99.70
2023-03-27T15:19:57.540Z,99.90
2023-03-27T15:22:47.443Z,99.90
2023-03-27T15:25:26.542Z,99.90
2023-03-27T15:27:57.380Z,99.90
2023-03-27T15:31:07.796Z,99.90
2023-03-27T15:33:49.556Z,99.90
2023-03-27T15:36:26.288Z,99.90
2023-03-27T15:39:01.564Z,99.90
2023-03-27T15:41:34.681Z,99.90
2023-03-27T15:44:17.438Z,99.90
2023-03-27T15:46:57.602Z,99.90
2023-03-27T15:49:31.517Z,99.90
2023-03-27T15:52:07.545Z,99.90
2023-03-27T15:54:36.093Z,99.90
2023-03-27T15:57:13.605Z,99.90
2023-03-27T15:59:52.549Z,99.90
2023-03-27T16:02:28.863Z,99.90
2023-03-27T16:05:07.310Z,99.90
2023-03-27T16:07:48.652Z,99.90
2023-03-27T16:10:29.984Z,99.90
2023-03-27T16:13:08.602Z,99.90
2023-03-27T16:15:41.153Z,99.90
2023-03-27T16:18:29.582Z,99.90
2023-03-27T16:21:14.650Z,99.90
2023-03-27T16:23:41.965Z,99.90
2023-03-27T16:26:21.588Z,99.90
2023-03-27T16:28:48.608Z,99.90
2023-03-27T16:31:19.792Z,99.90
2023-03-27T16:33:53.625Z,99.90
2023-03-27T16:36:29.918Z,99.90
2023-03-27T16:39:03.631Z,99.90
2023-03-27T16:41:30.447Z,99.90
2023-03-27T16:44:03.641Z,99.90
2023-03-27T16:46:31.631Z,99.90
2023-03-27T16:49:05.615Z,99.90
2023-03-27T16:51:32.528Z,99.90
2023-03-27T16:54:05.637Z,99.90
2023-03-27T16:56:34.977Z,99.90
2023-03-27T16:59:09.736Z,99.90
2023-03-27T17:01:42.639Z,99.90
2023-03-27T17:04:15.680Z,99.90
2023-03-27T17:06:42.788Z,99.90
2023-03-27T17:09:17.712Z,99.90
2023-03-27T17:11:44.785Z,99.90
2023-03-27T17:14:18.638Z,99.90
2023-03-27T17:16:45.604Z,99.90
2023-03-27T17:19:18.677Z,99.90
2023-03-27T17:21:45.721Z,99.90
2023-03-27T17:24:20.708Z,99.90
2023-03-27T17:26:47.481Z,99.90
2023-03-27T17:29:20.685Z,99.90
2023-03-27T17:31:48.045Z,99.90
2023-03-27T17:34:21.672Z,99.90
2023-03-27T17:36:54.229Z,99.90
2023-03-27T17:39:28.740Z,99.90
2023-03-27T17:42:01.707Z,99.90
2023-03-27T17:44:28.501Z,99.90
2023-03-27T17:47:01.732Z,99.90
2023-03-27T17:49:29.806Z,99.90
2023-03-27T17:52:03.751Z,99.90
2023-03-27T17:54:37.756Z,99.90
2023-03-27T17:57:04.837Z,99.90
2023-03-27T17:59:38.728Z,99.90
2023-03-27T18:02:07.158Z,99.90
2023-03-27T18:04:34.513Z,99.90
2023-03-27T18:07:07.745Z,99.90
2023-03-27T18:09:34.708Z,99.90
2023-03-27T18:12:14.769Z,99.90
2023-03-27T18:14:48.840Z,99.90
2023-03-27T18:17:19.021Z,99.90
2023-03-27T18:19:45.799Z,99.90
2023-03-27T18:22:18.805Z,99.90
2023-03-27T18:24:51.812Z,99.90
2023-03-27T18:27:18.670Z,99.90
2023-03-27T18:29:51.796Z,99.90
2023-03-27T18:32:27.821Z,99.90
2023-03-27T18:34:54.671Z,99.90
2023-03-27T18:37:28.917Z,99.90
2023-03-27T18:40:02.817Z,99.90
2023-03-27T18:42:35.882Z,99.90
2023-03-27T18:45:03.319Z,99.90
2023-03-27T18:47:52.030Z,99.90
2023-03-27T18:50:31.803Z,99.90
2023-03-27T18:53:06.049Z,99.90
2023-03-27T18:55:33.351Z,99.90
2023-03-27T18:58:00.204Z,99.90
2023-03-27T19:00:33.860Z,99.90
2023-03-27T19:03:00.825Z,99.90
2023-03-27T19:05:28.939Z,99.90
2023-03-27T19:08:05.874Z,99.90
2023-03-27T19:10:35.141Z,99.90
2023-03-27T19:13:18.911Z,99.90
2023-03-27T19:15:51.851Z,99.90
2023-03-27T19:18:18.808Z,99.90
2023-03-27T19:20:51.882Z,99.90
2023-03-27T19:23:24.872Z,99.90
2023-03-27T19:25:57.859Z,99.90
2023-03-27T19:28:24.910Z,99.90
2023-03-27T19:31:01.048Z,99.90
2023-03-27T19:33:34.941Z,99.90
2023-03-27T19:36:01.817Z,99.90
2023-03-27T19:38:34.890Z,99.90
2023-03-27T19:41:08.881Z,99.90
2023-03-27T19:43:35.847Z,99.90
2023-03-27T19:46:16.110Z,99.90
2023-03-27T19:48:50.215Z,99.90
2023-03-27T19:51:23.940Z,99.90
2023-03-27T19:53:51.196Z,99.90
2023-03-27T19:56:26.926Z,99.90
2023-03-27T19:58:53.821Z,99.90
2023-03-27T20:01:27.944Z,99.90
2023-03-27T20:03:57.090Z,99.90
2023-03-27T20:06:32.987Z,99.90
2023-03-27T20:09:00.982Z,99.90
2023-03-27T20:11:28.442Z,99.90
2023-03-27T20:14:01.978Z,99.90
2023-03-27T20:16:29.059Z,99.90
2023-03-27T20:19:10.970Z,99.90
2023-03-27T20:21:41.273Z,99.90
2023-03-27T20:24:16.105Z,99.90
2023-03-27T20:26:54.094Z,99.90
2023-03-27T20:29:29.994Z,99.90
2023-03-27T20:31:56.955Z,99.90
2023-03-27T20:34:24.175Z,99.90
2023-03-27T20:36:59.083Z,99.90
2023-03-27T20:39:28.693Z,99.90
2023-03-27T20:42:06.140Z,99.90
2023-03-27T20:44:35.597Z,99.90
2023-03-27T20:47:28.146Z,99.90
2023-03-27T20:49:58.923Z,99.90
2023-03-27T20:52:26.144Z,99.90
2023-03-27T20:55:01.071Z,99.90
2023-03-27T20:57:27.923Z,99.90
2023-03-27T21:00:01.047Z,99.90
2023-03-27T21:02:34.109Z,99.90
2023-03-27T21:05:02.813Z,99.90
2023-03-27T21:07:41.223Z,99.90
2023-03-27T21:10:08.389Z,99.90
2023-03-27T21:12:35.416Z,99.90
2023-03-27T21:15:09.076Z,99.90
2023-03-27T21:17:36.293Z,99.90
2023-03-27T21:20:12.024Z,99.90
2023-03-27T21:22:38.814Z,99.90
2023-03-27T21:25:13.087Z,99.90
2023-03-27T21:27:39.870Z,99.90
2023-03-27T21:30:15.623Z,99.90
2023-03-27T21:32:43.386Z,99.90
2023-03-27T21:35:17.114Z,99.90
2023-03-27T21:37:47.735Z,99.90
2023-03-27T21:40:21.066Z,99.90
2023-03-27T21:42:54.097Z,99.90
2023-03-27T21:45:27.091Z,99.90
2023-03-27T21:48:01.182Z,99.90
2023-03-27T21:50:34.132Z,99.90
2023-03-27T21:53:08.119Z,99.90
2023-03-27T21:55:35.760Z,99.90
2023-03-27T21:58:02.546Z,99.90
2023-03-27T22:00:36.098Z,99.90
2023-03-27T22:03:09.144Z,99.90
2023-03-27T22:05:49.134Z,99.90
2023-03-27T22:08:22.488Z,99.90
2023-03-27T22:10:56.221Z,99.90
2023-03-27T22:13:23.004Z,99.90
2023-03-27T22:15:49.878Z,99.90
2023-03-27T22:18:23.169Z,99.90
2023-03-27T22:20:56.235Z,99.90
2023-03-27T22:23:24.082Z,99.90
2023-03-27T22:25:59.231Z,99.90
2023-03-27T22:28:26.068Z,99.90
2023-03-27T22:30:52.923Z,99.90
2023-03-27T22:33:26.147Z,99.90
2023-03-27T22:35:59.537Z,99.90
2023-03-27T22:38:37.170Z,99.90
2023-03-27T22:41:05.948Z,99.90
2023-03-27T22:43:39.317Z,99.90
2023-03-27T22:46:08.597Z,99.90
2023-03-27T22:48:42.186Z,99.90
2023-03-27T22:51:17.166Z,99.90
2023-03-27T22:53:43.955Z,99.90
2023-03-27T22:56:17.726Z,99.90
2023-03-27T22:58:45.272Z,99.90
2023-03-27T23:01:19.382Z,99.90
2023-03-27T23:03:53.335Z,99.90
2023-03-27T23:06:23.398Z,99.90
2023-03-27T23:08:57.193Z,99.90
2023-03-27T23:11:23.987Z,99.90
2023-03-27T23:13:51.049Z,99.90
2023-03-27T23:16:24.258Z,99.90
2023-03-27T23:18:51.052Z,99.90
2023-03-27T23:21:18.078Z,99.90
2023-03-27T23:23:52.246Z,99.90
2023-03-27T23:26:25.256Z,99.90
2023-03-27T23:28:52.045Z,99.90
2023-03-27T23:31:19.972Z,99.90
2023-03-27T23:33:55.311Z,99.90
2023-03-27T23:36:31.289Z,99.90
2023-03-27T23:38:58.092Z,99.90
2023-03-27T23:41:24.980Z,99.90
2023-03-27T23:44:00.229Z,99.90
2023-03-27T23:46:33.328Z,99.90
2023-03-27T23:49:00.270Z,99.90
2023-03-27T23:51:33.357Z,99.90
2023-03-27T23:54:06.278Z,99.90
2023-03-27T23:56:39.291Z,99.90
2023-03-27T23:59:12.253Z,99.90
